WXM80 ListenWXM80 Stop

You find our weather info also at:

UK Metoffice

WeatherCloud

Weather Underground

Northeastern Weather Network

AWEKAS

Citizen Weather Observer Program (CWOP)

HAMweather, WeatherForYou, PWS Weather


Weather Underground History page Text

Daily Summary for April 23, 2016 Units:  English    Metric   Both
« Previous Day
Next Day »
Daily Weekly Monthly Yearly Custom
  High: Low: Average:
Temperature: 68.5 °F 52.8 °F 60.7 °F
Dew Point: 59.8 °F 39.2 °F 52.6 °F
Humidity: 96 % 52 % 76 %
Wind Speed: 9.0 mph 0.0 mph 3.3 mph
Wind Gust: 15.0 mph - -
Wind:- - SE
Pressure: 29.94 in 29.74 in -
Precipitation: 0.28 in    
Historical Graphs
 
 
Tabular Data for April 23, 2016
Time Temperature Dew Point Pressure Wind Wind Speed Wind Gust Humidity Rainfall Rate (Hourly)
00:04 68.2 °F 57.6 °F 29.77 in SW 4.2 mph 5.8 mph 69 % 0.00 in
00:15 67.9 °F 57.4 °F 29.77 in SSW 3.6 mph 6.9 mph 69 % 0.00 in
00:20 67.8 °F 57.3 °F 29.77 in WSW 2.9 mph 5.8 mph 69 % 0.00 in
00:25 67.7 °F 57.2 °F 29.77 in SSW 4.1 mph 7.0 mph 69 % 0.00 in
00:30 67.5 °F 57.0 °F 29.77 in SSW 2.5 mph 4.0 mph 69 % 0.00 in
00:35 67.4 °F 57.3 °F 29.77 in SSW 3.9 mph 5.8 mph 70 % 0.00 in
00:40 67.3 °F 57.2 °F 29.77 in SSW 4.7 mph 7.0 mph 70 % 0.00 in
00:45 67.2 °F 57.5 °F 29.77 in SW 4.2 mph 5.8 mph 71 % 0.00 in
00:50 67.1 °F 57.4 °F 29.77 in SSW 4.5 mph 4.5 mph 71 % 0.00 in
00:55 67.0 °F 57.7 °F 29.77 in SW 4.8 mph 7.0 mph 72 % 0.00 in
01:00 66.9 °F 58.0 °F 29.77 in SW 4.1 mph 9.2 mph 73 % 0.00 in
01:06 66.8 °F 57.9 °F 29.77 in WSW 5.0 mph 7.0 mph 73 % 0.00 in
01:11 66.7 °F 58.1 °F 29.77 in SW 4.2 mph 8.1 mph 74 % 0.00 in
01:16 66.8 °F 58.6 °F 29.77 in SW 2.6 mph 6.0 mph 75 % 0.00 in
01:21 66.8 °F 59.0 °F 29.78 in West 1.4 mph 4.0 mph 76 % 0.00 in
01:26 66.7 °F 58.9 °F 29.78 in WSW 0.8 mph 3.5 mph 76 % 0.00 in
01:31 66.6 °F 58.8 °F 29.77 in WSW 3.6 mph 5.8 mph 76 % 0.00 in
01:36 66.3 °F 58.9 °F 29.77 in SW 2.9 mph 6.9 mph 77 % 0.00 in
01:41 66.1 °F 59.4 °F 29.77 in SW 0.8 mph 4.6 mph 79 % 0.00 in
01:46 66.0 °F 59.7 °F 29.77 in Calm   2.3 mph 80 % 0.00 in
01:51 65.8 °F 59.8 °F 29.77 in West 0.7 mph 1.2 mph 81 % 0.01 in
01:57 65.4 °F 59.1 °F 29.77 in Calm   1.2 mph 80 % 0.02 in
02:02 65.0 °F 59.0 °F 29.77 in West 0.4 mph 1.2 mph 81 % 0.03 in
02:07 64.5 °F 58.5 °F 29.77 in Calm     81 % 0.04 in
02:12 64.1 °F 58.8 °F 29.77 in Calm     83 % 0.04 in
02:17 63.7 °F 59.1 °F 29.77 in Calm   1.0 mph 85 % 0.05 in
02:22 63.4 °F 58.8 °F 29.76 in Calm     85 % 0.05 in
02:27 63.1 °F 58.8 °F 29.76 in Calm     86 % 0.06 in
02:32 62.9 °F 59.0 °F 29.76 in Calm     87 % 0.06 in
02:37 62.6 °F 58.7 °F 29.76 in Calm     87 % 0.07 in
02:42 62.5 °F 58.9 °F 29.76 in Calm     88 % 0.08 in
02:48 62.4 °F 59.1 °F 29.76 in Calm     89 % 0.08 in
02:53 62.2 °F 58.9 °F 29.76 in Calm     89 % 0.08 in
02:58 62.2 °F 59.2 °F 29.76 in Calm     90 % 0.07 in
03:03 62.0 °F 59.0 °F 29.75 in Calm     90 % 0.08 in
03:08 62.0 °F 59.0 °F 29.76 in Calm     90 % 0.09 in
03:13 61.8 °F 58.8 °F 29.76 in Calm     90 % 0.12 in
03:18 61.8 °F 58.8 °F 29.76 in Calm     90 % 0.13 in
03:23 61.8 °F 59.1 °F 29.75 in Calm     91 % 0.14 in
03:28 61.8 °F 59.5 °F 29.76 in Calm     92 % 0.13 in
03:34 61.8 °F 59.5 °F 29.76 in Calm     92 % 0.14 in
03:39 61.7 °F 59.4 °F 29.75 in Calm     92 % 0.13 in
03:44 61.6 °F 59.3 °F 29.75 in Calm     92 % 0.13 in
03:49 61.6 °F 59.3 °F 29.75 in Calm     92 % 0.13 in
03:54 61.5 °F 59.2 °F 29.75 in West 0.3 mph 1.2 mph 92 % 0.12 in
03:59 61.3 °F 59.0 °F 29.75 in Calm     92 % 0.11 in
04:04 61.1 °F 58.5 °F 29.75 in Calm     91 % 0.11 in
04:09 60.9 °F 58.3 °F 29.75 in Calm     91 % 0.08 in
04:14 60.7 °F 58.1 °F 29.75 in Calm     91 % 0.06 in
04:19 60.5 °F 57.9 °F 29.75 in Calm     91 % 0.04 in
04:25 60.3 °F 57.7 °F 29.75 in Calm     91 % 0.03 in
04:30 60.1 °F 57.5 °F 29.75 in Calm     91 % 0.03 in
04:35 59.9 °F 57.3 °F 29.75 in Calm     91 % 0.03 in
04:40 59.8 °F 57.5 °F 29.74 in West 0.3 mph 1.2 mph 92 % 0.03 in
04:45 59.8 °F 57.5 °F 29.74 in West 1.0 mph 3.5 mph 92 % 0.03 in
04:50 59.9 °F 57.9 °F 29.74 in West 0.1 mph 1.2 mph 93 % 0.03 in
04:55 60.0 °F 58.3 °F 29.74 in West 0.2 mph 3.5 mph 94 % 0.03 in
05:00 60.1 °F 58.4 °F 29.74 in WNW 1.3 mph 3.5 mph 94 % 0.03 in
05:05 60.3 °F 58.9 °F 29.74 in WNW 1.3 mph 2.3 mph 95 % 0.02 in
05:10 60.4 °F 59.0 °F 29.74 in WNW 1.7 mph 3.5 mph 95 % 0.03 in
05:16 60.5 °F 59.1 °F 29.74 in WNW 1.8 mph 2.3 mph 95 % 0.03 in
05:21 60.6 °F 59.2 °F 29.74 in West 1.4 mph 4.6 mph 95 % 0.03 in
05:26 60.6 °F 59.2 °F 29.74 in WNW 2.2 mph 4.6 mph 95 % 0.03 in
05:31 60.7 °F 59.3 °F 29.74 in WNW 2.3 mph 4.6 mph 95 % 0.03 in
05:36 60.7 °F 59.3 °F 29.74 in WNW 0.3 mph 1.2 mph 95 % 0.02 in
05:41 60.7 °F 59.3 °F 29.74 in WNW 0.2 mph 1.2 mph 95 % 0.02 in
05:46 60.7 °F 59.3 °F 29.74 in NNE 1.8 mph 3.5 mph 95 % 0.02 in
05:56 60.5 °F 59.1 °F 29.74 in North 2.5 mph 5.0 mph 95 % 0.02 in
06:01 60.5 °F 59.1 °F 29.74 in NNE 3.2 mph 3.5 mph 95 % 0.02 in
06:07 60.4 °F 59.0 °F 29.74 in NNE 1.6 mph 3.5 mph 95 % 0.02 in
06:12 60.4 °F 59.0 °F 29.74 in NE 2.0 mph 3.5 mph 95 % 0.01 in
06:17 60.4 °F 59.0 °F 29.74 in North 2.1 mph 3.5 mph 95 % 0.01 in
06:22 60.3 °F 58.9 °F 29.74 in Calm     95 % 0.01 in
06:27 60.2 °F 58.8 °F 29.74 in North 0.4 mph 2.3 mph 95 % 0.01 in
06:32 60.2 °F 58.8 °F 29.74 in North 0.1 mph 1.2 mph 95 % 0.01 in
06:37 60.1 °F 58.7 °F 29.74 in North 0.2 mph 1.2 mph 95 % 0.01 in
06:42 60.0 °F 58.6 °F 29.75 in North 0.7 mph 2.0 mph 95 % 0.00 in
06:47 60.0 °F 58.6 °F 29.74 in North 0.2 mph 1.2 mph 95 % 0.00 in
06:52 59.9 °F 58.5 °F 29.75 in Calm     95 % 0.00 in
06:58 59.9 °F 58.5 °F 29.74 in North 0.5 mph 1.2 mph 95 % 0.00 in
07:03 59.9 °F 58.5 °F 29.75 in North 0.6 mph 3.5 mph 95 % 0.00 in
07:08 59.8 °F 58.4 °F 29.76 in North 0.4 mph 2.3 mph 95 % 0.00 in
07:13 59.7 °F 58.3 °F 29.76 in North 0.8 mph 1.2 mph 95 % 0.00 in
07:18 59.6 °F 58.2 °F 29.76 in North 1.3 mph 3.5 mph 95 % 0.00 in
07:23 59.5 °F 58.1 °F 29.76 in Calm     95 % 0.00 in
07:28 59.5 °F 58.1 °F 29.76 in North 0.6 mph 2.0 mph 95 % 0.00 in
07:33 59.4 °F 58.0 °F 29.76 in Calm   1.2 mph 95 % 0.00 in
07:38 59.4 °F 58.0 °F 29.76 in Calm   1.2 mph 95 % 0.00 in
07:43 59.4 °F 58.0 °F 29.76 in Calm     95 % 0.00 in
07:49 59.4 °F 58.0 °F 29.76 in Calm     95 % 0.00 in
07:59 59.5 °F 58.1 °F 29.77 in Calm   1.2 mph 95 % 0.00 in
08:04 59.6 °F 58.5 °F 29.77 in North 0.1 mph 1.0 mph 96 % 0.00 in
08:09 59.6 °F 58.5 °F 29.77 in Calm   1.2 mph 96 % 0.00 in
08:14 59.7 °F 58.6 °F 29.77 in North 0.6 mph 2.3 mph 96 % 0.00 in
08:19 59.8 °F 58.7 °F 29.77 in North 1.8 mph 3.5 mph 96 % 0.00 in
08:24 59.9 °F 58.8 °F 29.77 in North 0.8 mph 2.0 mph 96 % 0.00 in
08:29 59.9 °F 58.8 °F 29.77 in North 0.6 mph 2.3 mph 96 % 0.00 in
08:34 59.9 °F 58.8 °F 29.77 in North 0.1 mph 2.3 mph 96 % 0.01 in
08:40 60.0 °F 58.9 °F 29.77 in North 1.3 mph 2.3 mph 96 % 0.01 in
08:45 59.9 °F 58.8 °F 29.77 in North 0.4 mph 2.0 mph 96 % 0.01 in
08:50 59.9 °F 58.8 °F 29.77 in Calm   1.2 mph 96 % 0.01 in
08:55 59.9 °F 58.8 °F 29.77 in North 1.9 mph 4.0 mph 96 % 0.01 in
09:00 59.8 °F 58.7 °F 29.78 in North 0.4 mph 3.5 mph 96 % 0.01 in
09:05 59.7 °F 58.3 °F 29.78 in North 0.4 mph 3.0 mph 95 % 0.01 in
09:10 59.6 °F 58.2 °F 29.78 in NW 1.7 mph 3.0 mph 95 % 0.01 in
09:15 59.6 °F 58.2 °F 29.78 in North 2.5 mph 4.6 mph 95 % 0.02 in
09:20 59.5 °F 58.1 °F 29.78 in North 2.7 mph 5.8 mph 95 % 0.02 in
09:25 59.5 °F 58.1 °F 29.79 in NNW 4.1 mph 5.0 mph 95 % 0.02 in
09:31 59.5 °F 58.1 °F 29.79 in NNW 2.2 mph 3.5 mph 95 % 0.02 in
09:36 59.5 °F 58.1 °F 29.79 in NNE 2.8 mph 5.8 mph 95 % 0.01 in
09:41 59.6 °F 58.2 °F 29.79 in NNW 1.8 mph 5.8 mph 95 % 0.01 in
09:46 59.6 °F 58.2 °F 29.79 in North 3.4 mph 5.8 mph 95 % 0.01 in
09:51 59.9 °F 58.5 °F 29.80 in North 0.6 mph 2.3 mph 95 % 0.01 in
09:56 60.0 °F 58.6 °F 29.80 in North 1.8 mph 4.6 mph 95 % 0.01 in
10:01 60.0 °F 58.3 °F 29.80 in NNE 2.9 mph 5.8 mph 94 % 0.01 in
10:06 60.0 °F 58.3 °F 29.80 in NW 1.5 mph 3.5 mph 94 % 0.01 in
10:11 59.9 °F 57.9 °F 29.80 in North 5.0 mph 7.0 mph 93 % 0.00 in
10:16 59.8 °F 57.2 °F 29.81 in NNE 5.9 mph 9.0 mph 91 % 0.00 in
10:22 59.6 °F 56.7 °F 29.81 in NNE 5.9 mph 10.4 mph 90 % 0.00 in
10:27 59.4 °F 56.2 °F 29.81 in NW 5.8 mph 9.2 mph 89 % 0.00 in
10:32 59.1 °F 55.5 °F 29.81 in NNE 6.5 mph 9.2 mph 88 % 0.00 in
10:37 58.9 °F 55.0 °F 29.81 in NNW 6.8 mph 11.5 mph 87 % 0.00 in
10:42 58.7 °F 55.2 °F 29.81 in NNE 8.0 mph 12.0 mph 88 % 0.00 in
10:47 58.4 °F 54.5 °F 29.81 in NNE 3.6 mph 9.2 mph 87 % 0.00 in
10:52 58.3 °F 54.4 °F 29.81 in NNW 5.0 mph 8.1 mph 87 % 0.00 in
10:57 58.2 °F 54.3 °F 29.81 in NNE 3.3 mph 6.9 mph 87 % 0.00 in
11:02 58.0 °F 53.8 °F 29.81 in NNE 4.5 mph 8.1 mph 86 % 0.00 in
11:07 57.8 °F 53.6 °F 29.82 in NE 3.9 mph 10.4 mph 86 % 0.00 in
11:13 57.7 °F 53.5 °F 29.82 in NNE 7.1 mph 13.8 mph 86 % 0.00 in
11:18 57.6 °F 53.4 °F 29.82 in NNE 6.3 mph 10.4 mph 86 % 0.00 in
11:23 57.6 °F 53.1 °F 29.82 in North 4.4 mph 10.4 mph 85 % 0.00 in
11:28 57.7 °F 53.2 °F 29.82 in NNE 2.3 mph 7.0 mph 85 % 0.00 in
11:33 57.7 °F 53.2 °F 29.82 in NNE 5.8 mph 8.1 mph 85 % 0.00 in
11:38 57.7 °F 53.5 °F 29.82 in North 2.9 mph 6.0 mph 86 % 0.00 in
11:43 57.8 °F 53.3 °F 29.82 in NW 5.0 mph 8.1 mph 85 % 0.00 in
11:48 57.9 °F 53.4 °F 29.82 in NE 6.0 mph 9.2 mph 85 % 0.00 in
11:53 58.0 °F 53.2 °F 29.82 in North 3.8 mph 7.0 mph 84 % 0.00 in
11:58 58.1 °F 53.3 °F 29.82 in North 6.1 mph 11.5 mph 84 % 0.00 in
12:04 58.2 °F 53.1 °F 29.82 in NNW 4.6 mph 10.4 mph 83 % 0.00 in
12:09 58.2 °F 52.7 °F 29.82 in NNE 4.7 mph 8.1 mph 82 % 0.00 in
12:14 58.2 °F 52.4 °F 29.81 in NNW 4.8 mph 8.1 mph 81 % 0.00 in
12:19 58.4 °F 52.6 °F 29.82 in NNE 6.7 mph 10.4 mph 81 % 0.00 in
12:24 58.6 °F 52.8 °F 29.81 in NNE 3.8 mph 8.1 mph 81 % 0.00 in
12:29 58.7 °F 52.9 °F 29.81 in NNW 4.1 mph 5.8 mph 81 % 0.00 in
12:34 58.8 °F 52.6 °F 29.81 in NNE 3.5 mph 5.0 mph 80 % 0.00 in
12:39 58.9 °F 53.4 °F 29.80 in North 2.0 mph 5.8 mph 82 % 0.00 in
12:44 59.0 °F 53.2 °F 29.80 in NNE 2.8 mph 4.6 mph 81 % 0.00 in
12:49 59.1 °F 52.9 °F 29.80 in NNE 1.2 mph 3.5 mph 80 % 0.00 in
12:55 59.3 °F 53.5 °F 29.80 in NE 1.6 mph 4.0 mph 81 % 0.00 in
13:00 59.5 °F 53.3 °F 29.80 in NNE 2.7 mph 5.0 mph 80 % 0.00 in
13:05 59.9 °F 53.4 °F 29.80 in NNE 5.1 mph 7.0 mph 79 % 0.00 in
13:15 60.7 °F 53.4 °F 29.80 in NNE 2.4 mph 4.6 mph 77 % 0.00 in
13:20 60.9 °F 53.3 °F 29.80 in NNE 1.6 mph 4.0 mph 76 % 0.00 in
13:25 61.2 °F 53.9 °F 29.80 in NNW 1.8 mph 3.5 mph 77 % 0.00 in
13:30 61.4 °F 53.4 °F 29.80 in NE 3.7 mph 9.2 mph 75 % 0.00 in
13:35 61.6 °F 52.9 °F 29.80 in North 3.8 mph 4.6 mph 73 % 0.00 in
13:40 61.9 °F 52.4 °F 29.80 in NW 5.1 mph 5.8 mph 71 % 0.00 in
13:46 62.5 °F 53.3 °F 29.80 in North 5.3 mph 8.1 mph 72 % 0.00 in
13:51 63.1 °F 53.2 °F 29.80 in North 4.7 mph 6.9 mph 70 % 0.00 in
14:01 63.3 °F 52.6 °F 29.81 in North 5.2 mph 8.0 mph 68 % 0.00 in
14:06 63.3 °F 52.2 °F 29.81 in WNW 3.8 mph 10.4 mph 67 % 0.00 in
14:11 63.0 °F 51.5 °F 29.81 in North 4.1 mph 5.0 mph 66 % 0.00 in
14:16 62.8 °F 52.1 °F 29.81 in NW 1.9 mph 4.6 mph 68 % 0.00 in
14:21 62.8 °F 51.7 °F 29.81 in NNE 3.7 mph 6.9 mph 67 % 0.00 in
14:26 63.1 °F 52.4 °F 29.81 in NNW 2.8 mph 6.0 mph 68 % 0.00 in
14:31 63.6 °F 52.8 °F 29.81 in WNW 4.4 mph 8.1 mph 68 % 0.00 in
14:37 64.1 °F 52.1 °F 29.81 in NNE 3.4 mph 7.0 mph 65 % 0.00 in
14:42 64.5 °F 51.6 °F 29.81 in NNE 7.1 mph 9.0 mph 63 % 0.00 in
14:47 65.1 °F 53.5 °F 29.80 in North 2.7 mph 4.6 mph 66 % 0.00 in
14:52 66.1 °F 52.7 °F 29.80 in NE 2.6 mph 4.6 mph 62 % 0.00 in
14:57 66.8 °F 52.0 °F 29.80 in NE 3.9 mph 7.0 mph 59 % 0.00 in
15:02 67.3 °F 52.9 °F 29.80 in NNE 3.1 mph 4.0 mph 60 % 0.00 in
15:07 67.4 °F 51.6 °F 29.80 in North 3.3 mph 5.0 mph 57 % 0.00 in
15:12 67.5 °F 52.2 °F 29.79 in North 2.7 mph 4.0 mph 58 % 0.00 in
15:17 67.5 °F 51.7 °F 29.79 in North 1.8 mph 4.0 mph 57 % 0.00 in
15:22 67.8 °F 52.0 °F 29.79 in NE 2.7 mph 3.5 mph 57 % 0.00 in
15:28 67.9 °F 51.1 °F 29.79 in NNE 2.6 mph 5.0 mph 55 % 0.00 in
15:33 68.3 °F 51.5 °F 29.79 in North 3.8 mph 5.8 mph 55 % 0.00 in
15:38 68.5 °F 50.7 °F 29.79 in North 2.2 mph 3.5 mph 53 % 0.00 in
15:43 68.4 °F 50.1 °F 29.79 in North 5.4 mph 8.1 mph 52 % 0.00 in
15:48 68.1 °F 51.3 °F 29.79 in NW 2.5 mph 5.8 mph 55 % 0.00 in
15:53 67.6 °F 51.3 °F 29.79 in NNE 2.4 mph 5.8 mph 56 % 0.00 in
15:58 66.7 °F 50.5 °F 29.79 in NNE 5.1 mph 9.2 mph 56 % 0.00 in
16:03 66.3 °F 50.6 °F 29.79 in NE 6.0 mph 9.2 mph 57 % 0.00 in
16:08 66.3 °F 50.6 °F 29.79 in NE 6.1 mph 9.0 mph 57 % 0.00 in
16:13 66.4 °F 51.2 °F 29.79 in NNW 4.6 mph 9.2 mph 58 % 0.00 in
16:19 66.5 °F 50.3 °F 29.79 in NNW 3.8 mph 8.1 mph 56 % 0.00 in
16:24 66.7 °F 50.0 °F 29.79 in North 4.0 mph 10.4 mph 55 % 0.00 in
16:29 66.7 °F 49.5 °F 29.79 in North 5.8 mph 10.4 mph 54 % 0.00 in
16:34 66.8 °F 50.6 °F 29.79 in NNW 0.6 mph 2.3 mph 56 % 0.00 in
16:39 66.6 °F 50.9 °F 29.80 in North 3.9 mph 5.8 mph 57 % 0.00 in
16:44 66.3 °F 49.2 °F 29.80 in North 7.6 mph 11.5 mph 54 % 0.00 in
16:49 65.9 °F 48.8 °F 29.80 in NE 5.7 mph 9.2 mph 54 % 0.00 in
16:54 65.8 °F 49.2 °F 29.80 in NNE 4.2 mph 8.1 mph 55 % 0.00 in
16:59 65.7 °F 48.6 °F 29.80 in NNE 4.1 mph 10.4 mph 54 % 0.00 in
17:05 65.7 °F 49.1 °F 29.80 in NE 5.2 mph 10.4 mph 55 % 0.00 in
17:10 65.5 °F 48.4 °F 29.80 in North 4.2 mph 8.1 mph 54 % 0.00 in
17:15 65.2 °F 48.1 °F 29.80 in North 9.0 mph 11.5 mph 54 % 0.00 in
17:20 64.9 °F 48.3 °F 29.80 in NNE 2.9 mph 5.8 mph 55 % 0.00 in
17:25 64.7 °F 48.6 °F 29.81 in NNW 2.3 mph 3.5 mph 56 % 0.00 in
17:30 64.5 °F 48.0 °F 29.81 in NNE 4.5 mph 8.1 mph 55 % 0.00 in
17:40 63.6 °F 47.1 °F 29.82 in North 8.0 mph 12.7 mph 55 % 0.00 in
17:45 63.3 °F 46.9 °F 29.82 in North 6.0 mph 8.1 mph 55 % 0.00 in
17:56 62.8 °F 47.3 °F 29.82 in ENE 6.4 mph 8.0 mph 57 % 0.00 in
18:06 62.0 °F 46.6 °F 29.83 in North 5.6 mph 10.4 mph 57 % 0.00 in
18:11 61.7 °F 45.8 °F 29.83 in NNE 8.3 mph 13.8 mph 56 % 0.00 in
18:16 61.3 °F 45.5 °F 29.83 in North 6.3 mph 12.7 mph 56 % 0.00 in
18:21 61.0 °F 45.7 °F 29.83 in NNE 5.7 mph 10.4 mph 57 % 0.00 in
18:26 60.8 °F 44.5 °F 29.83 in NNE 9.0 mph 11.5 mph 55 % 0.00 in
18:31 60.5 °F 44.2 °F 29.83 in North 7.7 mph 11.5 mph 55 % 0.00 in
18:36 60.3 °F 43.6 °F 29.83 in North 8.5 mph 10.4 mph 54 % 0.00 in
18:41 60.2 °F 44.0 °F 29.83 in NNE 7.2 mph 9.0 mph 55 % 0.00 in
18:47 60.0 °F 43.3 °F 29.84 in NNE 8.0 mph 15.0 mph 54 % 0.00 in
18:52 59.8 °F 43.6 °F 29.83 in NE 7.1 mph 11.5 mph 55 % 0.00 in
18:57 59.5 °F 43.3 °F 29.83 in North 7.6 mph 11.5 mph 55 % 0.00 in
19:02 59.3 °F 43.1 °F 29.84 in North 7.6 mph 12.0 mph 55 % 0.00 in
19:07 59.0 °F 43.8 °F 29.84 in North 7.4 mph 11.5 mph 57 % 0.00 in
19:17 58.7 °F 44.4 °F 29.84 in NNE 4.1 mph 7.0 mph 59 % 0.00 in
19:22 58.4 °F 44.1 °F 29.84 in North 4.5 mph 6.9 mph 59 % 0.00 in
19:27 58.2 °F 44.4 °F 29.85 in North 7.0 mph 10.0 mph 60 % 0.00 in
19:38 57.9 °F 43.7 °F 29.86 in NNW 2.0 mph 8.1 mph 59 % 0.00 in
19:43 57.7 °F 44.3 °F 29.86 in NNE 4.8 mph 8.1 mph 61 % 0.00 in
19:48 57.5 °F 44.6 °F 29.86 in NW 4.4 mph 8.1 mph 62 % 0.00 in
19:53 57.3 °F 44.4 °F 29.86 in NNE 2.7 mph 4.6 mph 62 % 0.00 in
19:58 57.1 °F 44.6 °F 29.86 in North 2.4 mph 4.6 mph 63 % 0.00 in
20:03 56.9 °F 44.8 °F 29.87 in North 2.5 mph 3.5 mph 64 % 0.00 in
20:08 56.8 °F 44.7 °F 29.87 in NNW 2.2 mph 3.5 mph 64 % 0.00 in
20:13 56.5 °F 44.0 °F 29.87 in NNE 3.9 mph 8.1 mph 63 % 0.00 in
20:18 56.4 °F 44.0 °F 29.88 in NNE 4.9 mph 10.4 mph 63 % 0.00 in
20:23 56.3 °F 44.3 °F 29.88 in NNE 4.8 mph 7.0 mph 64 % 0.00 in
20:29 56.2 °F 44.2 °F 29.88 in NNW 3.4 mph 9.2 mph 64 % 0.00 in
20:34 56.1 °F 43.7 °F 29.88 in NNE 4.9 mph 8.1 mph 63 % 0.00 in
20:39 56.0 °F 44.0 °F 29.88 in NNE 4.7 mph 9.2 mph 64 % 0.00 in
20:44 56.0 °F 44.4 °F 29.88 in NNE 3.9 mph 6.9 mph 65 % 0.00 in
20:49 55.8 °F 44.2 °F 29.88 in NE 4.5 mph 9.2 mph 65 % 0.00 in
20:54 55.7 °F 44.1 °F 29.89 in NNE 5.5 mph 6.9 mph 65 % 0.00 in
20:59 55.6 °F 44.8 °F 29.89 in NNE 5.0 mph 9.0 mph 67 % 0.00 in
21:04 55.4 °F 44.6 °F 29.89 in NNE 3.1 mph 4.6 mph 67 % 0.00 in
21:09 55.2 °F 44.8 °F 29.89 in NNE 2.1 mph 5.0 mph 68 % 0.00 in
21:14 55.0 °F 43.4 °F 29.89 in NNE 5.8 mph 8.1 mph 65 % 0.00 in
21:20 54.8 °F 42.4 °F 29.90 in North 4.2 mph 10.4 mph 63 % 0.00 in
21:25 54.8 °F 42.0 °F 29.90 in NNE 6.9 mph 9.2 mph 62 % 0.00 in
21:30 54.8 °F 42.0 °F 29.90 in North 7.0 mph 10.4 mph 62 % 0.00 in
21:35 54.9 °F 42.1 °F 29.90 in North 5.1 mph 9.2 mph 62 % 0.00 in
21:40 55.0 °F 41.8 °F 29.90 in NNE 6.9 mph 11.5 mph 61 % 0.00 in
21:50 55.0 °F 41.8 °F 29.90 in NE 4.9 mph 11.5 mph 61 % 0.00 in
21:55 55.0 °F 41.8 °F 29.91 in NNE 6.1 mph 10.4 mph 61 % 0.00 in
22:00 55.0 °F 40.5 °F 29.91 in NE 7.5 mph 11.5 mph 58 % 0.00 in
22:05 55.1 °F 40.6 °F 29.91 in NNE 7.5 mph 12.0 mph 58 % 0.00 in
22:11 55.1 °F 40.6 °F 29.91 in NE 6.1 mph 9.2 mph 58 % 0.00 in
22:16 55.2 °F 39.8 °F 29.91 in North 8.1 mph 13.8 mph 56 % 0.00 in
22:21 55.2 °F 39.8 °F 29.91 in NE 5.2 mph 10.4 mph 56 % 0.00 in
22:26 55.1 °F 40.6 °F 29.91 in NNW 6.1 mph 9.2 mph 58 % 0.00 in
22:31 55.1 °F 41.0 °F 29.91 in North 5.9 mph 8.1 mph 59 % 0.00 in
22:36 54.9 °F 41.7 °F 29.91 in NNE 6.2 mph 11.5 mph 61 % 0.00 in
22:41 54.8 °F 41.2 °F 29.92 in NNE 8.7 mph 12.7 mph 60 % 0.00 in
22:46 54.6 °F 41.4 °F 29.92 in NNE 5.6 mph 11.5 mph 61 % 0.00 in
22:51 54.5 °F 41.3 °F 29.92 in NNE 7.2 mph 11.0 mph 61 % 0.00 in
22:56 54.4 °F 40.8 °F 29.92 in NNE 3.5 mph 9.2 mph 60 % 0.00 in
23:02 54.2 °F 40.2 °F 29.92 in NE 7.2 mph 9.2 mph 59 % 0.00 in
23:07 54.1 °F 39.6 °F 29.92 in NNE 5.0 mph 9.2 mph 58 % 0.00 in
23:12 54.1 °F 39.2 °F 29.92 in NNE 6.8 mph 11.5 mph 57 % 0.00 in
23:17 54.0 °F 39.5 °F 29.92 in NNE 6.0 mph 10.4 mph 58 % 0.00 in
23:27 53.7 °F 40.6 °F 29.92 in NNE 5.2 mph 8.1 mph 61 % 0.00 in
23:32 53.6 °F 40.9 °F 29.92 in NE 6.2 mph 11.0 mph 62 % 0.00 in
23:37 53.4 °F 40.7 °F 29.93 in NNE 3.5 mph 5.0 mph 62 % 0.00 in
23:42 53.3 °F 40.6 °F 29.93 in NNE 4.7 mph 9.2 mph 62 % 0.00 in
23:47 53.1 °F 40.8 °F 29.93 in North 3.4 mph 6.9 mph 63 % 0.00 in
23:53 53.0 °F 40.7 °F 29.93 in North 4.1 mph 5.8 mph 63 % 0.00 in
23:58 52.8 °F 40.5 °F 29.94 in NNE 5.4 mph 6.9 mph 63 % 0.00 in
Crab Meadow Weather
Compliments of Weather Underground - 2.75 mb

Script developed by  Jim McMurry - jmcmurry@mwt.net Adapted for the template by  Wim van der Kuil - Leuven-Template.eu

Astronomy: Mercury can get as hot as 800 degrees and can be as cold as 300 degrees below zero.